Shady Lady — WDD8618 — position and weather

sailwx.info

Track history (hours):
 
Tides and Currents Weather Stations Pressure Air Temp Water Temp Dewpoint Dewpoint Depression Visibility Wind Speed Wind Dir Waves Ship Positions

Shady Lady

Owner: SHADY LADY OF WEST SAYVILLE INC, MONTAUK, NY. More information available from US FCC via Universal Licensing System and Coast Guard Vessel Documentation Center.

Last reported at 2018-Feb-01 17:32 UTC. Time now 2018-Feb-25 01:54 UTC.
Position N 34°48' W 076°41'.
Warning: this ship's position is 23 days out of date.

Length 18 m.

Type: Pleasure craft. MMSI: 367300490.

Date/timePositionNaut miles runAvg speedWind from/ knotsBaromVisibWave heightAir tempDewpointWater temp
2018-Feb-01 17:32N 34°48' W 076°41'0 0.0
2018-Feb-01 17:29N 34°48' W 076°41'0 0.0
2018-Feb-01 16:56N 34°48' W 076°41'0 0.0
2018-Feb-01 16:30N 34°48' W 076°41'0 0.0
2018-Feb-01 15:58N 34°48' W 076°41'0 0.0
2018-Feb-01 15:26N 34°48' W 076°41'0 0.0
2018-Feb-01 14:59N 34°48' W 076°41'2 1.5
2018-Feb-01 13:30N 34°51' W 076°41'3 5.6
2018-Feb-01 13:00N 34°53' W 076°41'3 5.7
2018-Feb-01 12:30N 34°56' W 076°39'3 6.5
2018-Feb-01 12:00N 34°58' W 076°42'1 0.8
2018-Feb-01 10:41N 34°59' W 076°42'0 0.3
2018-Feb-01 10:11N 34°59' W 076°42'6 2.3
2018-Feb-01 07:27N 35°03' W 076°36'5 6.2
2018-Feb-01 06:42N 35°05' W 076°31'  
Track history (hours):
 
Tides and Currents Weather Stations Pressure Air Temp Water Temp Dewpoint Dewpoint Depression Visibility Wind Speed Wind Dir Waves Ship Positions

Shady Lady

Owner: SHADY LADY OF WEST SAYVILLE INC, MONTAUK, NY. More information available from US FCC via Universal Licensing System and Coast Guard Vessel Documentation Center.

Last reported at 2018-Feb-01 17:32 UTC. Time now 2018-Feb-25 01:54 UTC.
Position N 34°48' W 076°41'.
Warning: this ship's position is 23 days out of date.

Length 18 m.

Type: Pleasure craft. MMSI: 367300490.

Date/timePositionNaut miles runAvg speedWind from/ knotsBaromVisibWave heightAir tempDewpointWater temp
2018-Feb-01 17:32N 34°48' W 076°41'0 0.0
2018-Feb-01 17:29N 34°48' W 076°41'0 0.0
2018-Feb-01 16:56N 34°48' W 076°41'0 0.0
2018-Feb-01 16:30N 34°48' W 076°41'0 0.0
2018-Feb-01 15:58N 34°48' W 076°41'0 0.0
2018-Feb-01 15:26N 34°48' W 076°41'0 0.0
2018-Feb-01 14:59N 34°48' W 076°41'2 1.5
2018-Feb-01 13:30N 34°51' W 076°41'3 5.6
2018-Feb-01 13:00N 34°53' W 076°41'3 5.7
2018-Feb-01 12:30N 34°56' W 076°39'3 6.5
2018-Feb-01 12:00N 34°58' W 076°42'1 0.8
2018-Feb-01 10:41N 34°59' W 076°42'0 0.3
2018-Feb-01 10:11N 34°59' W 076°42'6 2.3
2018-Feb-01 07:27N 35°03' W 076°36'5 6.2
2018-Feb-01 06:42N 35°05' W 076°31'  

Dump ship's entire track history